Camanducaia, Brazil
Current Conditions -  °F | °C
As of 6:00 PM on Friday 28 Nov 2014 (Local Time) from SBSJ Reporting Station
Broken Clouds Broken Clouds  
Wind Chill: 77°   Ceiling: 3300
Heat Index: 79°   Visibility: 6mi
Dew Point: 63°   Wind: 16mph
Humidity: 61%   Direction: 130°SE
Pressure: 30.03"   Gusts: NA
Location:  22.76°S, 46.14°W
Report Text: SBSJ 282000Z 13014KT 9999 BKN033 25/17 Q1017
Loading
Personal Weather Stations






























Interactive Weather Map New forecast layout! Learn more

10-Day Weather Forecast

Advertisements
Track Severe Weather on mobile